Terminal Aerodrome Forecast
Issued by NWS New Orleans/Baton Rouge, LA

Home | Current Version | Previous Version | Text Only | Print | Product List | Glossary On
Versions: 1 2 3 4 5 6 7 8 9 10 11 12 13 14 15 16 17 18 19 20 21 22 23 24 25 26 27
000
FTUS44 KLIX 231429 AAA
TAFNEW
TAF AMD
KNEW 231429Z 2314/2412 32015KT P6SM BKN021 OVC060
     FM231600 34015G25KT P6SM BKN020
     FM231900 33015G25KT P6SM SCT025
     FM240400 35016G27KT P6SM FEW150=

USA.gov is the U.S. government's official web portal to all federal, state and local government web resources and services.